createdAt,value
2017-01-11T00:00:39.030Z,1007.32
2017-01-11T00:01:50.438Z,1007.33
2017-01-11T00:03:01.841Z,1007.4
2017-01-11T00:04:13.239Z,1007.39
2017-01-11T00:05:24.688Z,1007.35
2017-01-11T00:06:36.093Z,1007.27
2017-01-11T00:07:47.499Z,1007.21
2017-01-11T00:08:58.898Z,1007.23
2017-01-11T00:10:10.497Z,1007.26
2017-01-11T00:11:21.971Z,1007.26
2017-01-11T00:12:33.368Z,1007.27
2017-01-11T00:13:44.765Z,1007.22
2017-01-11T00:14:56.405Z,1007.24
2017-01-11T00:16:08.005Z,1007.24
2017-01-11T00:17:19.465Z,1007.22
2017-01-11T00:18:31.090Z,1007.16
2017-01-11T00:19:42.496Z,1007.09
2017-01-11T00:20:53.899Z,1007.05
2017-01-11T00:22:05.500Z,1007.05
2017-01-11T00:23:16.950Z,1007.03
2017-01-11T00:24:28.556Z,1007.02
2017-01-11T00:25:39.962Z,1007.03
2017-01-11T00:26:51.361Z,1007.02
2017-01-11T00:28:02.963Z,1007.03
2017-01-11T00:29:14.417Z,1007.1
2017-01-11T00:30:25.827Z,1007.1
2017-01-11T00:31:37.243Z,1007.1
2017-01-11T00:32:48.642Z,1007.12
2017-01-11T00:34:00.032Z,1007.07
2017-01-11T00:35:11.483Z,1007.04
2017-01-11T00:36:22.881Z,1007.07
2017-01-11T00:37:34.280Z,1006.98
2017-01-11T00:38:45.683Z,1006.97
2017-01-11T00:39:57.085Z,1006.96
2017-01-11T00:41:08.534Z,1006.98
2017-01-11T00:42:19.939Z,1006.98
2017-01-11T00:43:31.335Z,1006.99
2017-01-11T00:44:42.943Z,1006.99
2017-01-11T00:45:54.346Z,1007.04
2017-01-11T00:47:05.799Z,1007
2017-01-11T00:48:17.195Z,1006.97
2017-01-11T00:49:28.601Z,1006.97
2017-01-11T00:50:40.007Z,1007
2017-01-11T00:51:51.408Z,1007.04
2017-01-11T00:53:02.861Z,1007.02
2017-01-11T00:54:14.259Z,1006.94
2017-01-11T00:55:25.682Z,1006.89
2017-01-11T00:56:37.078Z,1006.85
2017-01-11T00:57:48.676Z,1006.83
2017-01-11T00:59:00.126Z,1006.87
2017-01-11T01:00:11.531Z,1006.94
2017-01-11T01:01:22.929Z,1007.02
2017-01-11T01:02:34.338Z,1007.05
2017-01-11T01:03:45.740Z,1006.96
2017-01-11T01:04:57.186Z,1006.9
2017-01-11T01:06:08.586Z,1006.83
2017-01-11T01:07:19.990Z,1006.9
2017-01-11T01:08:31.402Z,1006.91
2017-01-11T01:09:42.810Z,1006.89
2017-01-11T01:10:54.604Z,1006.83
2017-01-11T01:12:06.019Z,1006.79
2017-01-11T01:13:17.440Z,1006.77
2017-01-11T01:14:28.868Z,1006.74
2017-01-11T01:15:40.319Z,1006.72
2017-01-11T01:16:51.931Z,1006.69
2017-01-11T01:18:03.329Z,1006.65
2017-01-11T01:19:14.733Z,1006.66
2017-01-11T01:20:26.140Z,1006.63
2017-01-11T01:21:37.592Z,1006.53
2017-01-11T01:22:48.995Z,1006.53
2017-01-11T01:24:00.400Z,1006.55
2017-01-11T01:25:11.796Z,1006.55
2017-01-11T01:26:23.202Z,1006.57
2017-01-11T01:27:34.653Z,1006.61
2017-01-11T01:28:46.056Z,1006.69
2017-01-11T01:29:57.452Z,1006.73
2017-01-11T01:31:08.854Z,1006.75
2017-01-11T01:32:20.464Z,1006.79
2017-01-11T01:33:32.120Z,1006.7
2017-01-11T01:34:43.519Z,1006.65
2017-01-11T01:35:54.923Z,1006.62
2017-01-11T01:37:06.531Z,1006.57
2017-01-11T01:38:17.936Z,1006.55
2017-01-11T01:39:29.588Z,1006.55
2017-01-11T01:40:40.998Z,1006.59
2017-01-11T01:41:52.597Z,1006.59
2017-01-11T01:43:04.001Z,1006.56
2017-01-11T01:44:15.399Z,1006.46
2017-01-11T01:45:27.054Z,1006.5
2017-01-11T01:46:38.456Z,1006.54
2017-01-11T01:47:49.864Z,1006.56
2017-01-11T01:49:01.471Z,1006.61
2017-01-11T01:50:13.478Z,1006.57
2017-01-11T01:51:24.945Z,1006.52
2017-01-11T01:52:36.349Z,1006.52
2017-01-11T01:53:47.955Z,1006.51
2017-01-11T01:54:59.365Z,1006.47
2017-01-11T01:56:10.767Z,1006.4
2017-01-11T01:57:22.213Z,1006.38
2017-01-11T01:58:33.622Z,1006.33
2017-01-11T01:59:45.231Z,1006.31
2017-01-11T02:00:56.838Z,1006.23
2017-01-11T02:02:08.234Z,1006.24
2017-01-11T02:03:19.876Z,1006.28
2017-01-11T02:04:31.305Z,1006.26
2017-01-11T02:05:42.708Z,1006.26
2017-01-11T02:06:54.507Z,1006.26
2017-01-11T02:08:05.930Z,1006.24
2017-01-11T02:09:17.379Z,1006.18
2017-01-11T02:10:28.784Z,1006.11
2017-01-11T02:11:40.190Z,1006.08
2017-01-11T02:12:51.594Z,1006.07
2017-01-11T02:14:03.006Z,1006.01
2017-01-11T02:15:14.460Z,1006
2017-01-11T02:16:25.863Z,1006.12
2017-01-11T02:17:37.277Z,1006.18
2017-01-11T02:18:48.683Z,1006.15
2017-01-11T02:20:00.283Z,1006.11
2017-01-11T02:21:11.926Z,1006.03
2017-01-11T02:22:23.321Z,1006.02
2017-01-11T02:23:34.719Z,1005.97
2017-01-11T02:24:46.123Z,1005.95
2017-01-11T02:25:57.532Z,1005.87
2017-01-11T02:27:08.987Z,1005.82
2017-01-11T02:28:20.392Z,1005.8
2017-01-11T02:29:31.790Z,1005.82
2017-01-11T02:30:43.197Z,1005.81
2017-01-11T02:31:54.599Z,1005.83
2017-01-11T02:33:06.046Z,1005.82
2017-01-11T02:34:17.441Z,1005.88
2017-01-11T02:35:28.834Z,1005.88
2017-01-11T02:36:40.438Z,1005.86
2017-01-11T02:37:52.060Z,1005.84
2017-01-11T02:39:03.503Z,1005.88
2017-01-11T02:40:14.909Z,1005.95
2017-01-11T02:41:26.310Z,1005.87
2017-01-11T02:42:37.708Z,1005.84
2017-01-11T02:43:49.119Z,1005.83
2017-01-11T02:45:00.575Z,1005.82
2017-01-11T02:46:12.200Z,1005.78
2017-01-11T02:47:23.811Z,1005.73
2017-01-11T02:48:35.215Z,1005.72
2017-01-11T02:49:46.817Z,1005.73
2017-01-11T02:50:58.426Z,1005.75
2017-01-11T02:52:09.838Z,1005.72
2017-01-11T02:53:21.264Z,1005.67
2017-01-11T02:54:32.667Z,1005.62
2017-01-11T02:55:44.117Z,1005.53
2017-01-11T02:56:55.523Z,1005.46
2017-01-11T02:58:06.925Z,1005.41
2017-01-11T02:59:18.728Z,1005.33
2017-01-11T03:00:30.131Z,1005.28
2017-01-11T03:01:41.787Z,1005.22
2017-01-11T03:02:53.195Z,1005.19
2017-01-11T03:04:04.793Z,1005.2
2017-01-11T03:05:16.187Z,1005.22
2017-01-11T03:06:27.582Z,1005.28
2017-01-11T03:07:39.035Z,1005.29
2017-01-11T03:08:50.832Z,1005.39
2017-01-11T03:10:02.247Z,1005.39
2017-01-11T03:11:13.648Z,1005.37
2017-01-11T03:12:25.049Z,1005.35
2017-01-11T03:13:36.510Z,1005.32
2017-01-11T03:14:47.911Z,1005.34
2017-01-11T03:15:59.319Z,1005.36
2017-01-11T03:17:10.749Z,1005.33
2017-01-11T03:18:22.355Z,1005.32
2017-01-11T03:19:33.812Z,1005.35
2017-01-11T03:20:45.205Z,1005.31
2017-01-11T03:21:56.639Z,1005.29
2017-01-11T03:23:08.041Z,1005.3
2017-01-11T03:24:19.449Z,1005.26
2017-01-11T03:25:30.900Z,1005.25
2017-01-11T03:26:42.300Z,1005.22
2017-01-11T03:27:53.698Z,1005.17
2017-01-11T03:29:05.107Z,1005.13
2017-01-11T03:30:16.511Z,1005.14
2017-01-11T03:31:27.960Z,1005.15
2017-01-11T03:32:39.364Z,1005.22
2017-01-11T03:33:51.169Z,1005.32
2017-01-11T03:35:02.571Z,1005.29
2017-01-11T03:36:14.169Z,1005.35
2017-01-11T03:37:25.617Z,1005.3
2017-01-11T03:38:37.425Z,1005.25
2017-01-11T03:39:48.834Z,1005.21
2017-01-11T03:41:00.240Z,1005.22
2017-01-11T03:42:11.639Z,1005.15
2017-01-11T03:43:23.091Z,1005.18
2017-01-11T03:44:34.490Z,1005.18
2017-01-11T03:45:46.093Z,1005.18
2017-01-11T03:46:57.698Z,1005.26
2017-01-11T03:48:09.103Z,1005.27
2017-01-11T03:49:20.959Z,1005.24
2017-01-11T03:50:32.366Z,1005.21
2017-01-11T03:51:43.771Z,1005.16
2017-01-11T03:52:55.181Z,1005.11
2017-01-11T03:54:06.583Z,1005.11
2017-01-11T03:55:18.236Z,1005.04
2017-01-11T03:56:29.836Z,1004.93
2017-01-11T03:57:41.241Z,1004.88
2017-01-11T03:58:52.650Z,1004.86
2017-01-11T04:00:04.253Z,1004.83
2017-01-11T04:01:15.713Z,1004.85
2017-01-11T04:02:27.116Z,1004.81
2017-01-11T04:03:38.523Z,1004.82
2017-01-11T04:04:50.119Z,1004.7
2017-01-11T04:06:01.545Z,1004.67
2017-01-11T04:07:13.005Z,1004.62
2017-01-11T04:08:24.406Z,1004.58
2017-01-11T04:09:35.812Z,1004.55
2017-01-11T04:10:47.218Z,1004.48
2017-01-11T04:11:58.622Z,1004.5
2017-01-11T04:13:10.076Z,1004.51
2017-01-11T04:14:21.479Z,1004.44
2017-01-11T04:15:32.883Z,1004.5
2017-01-11T04:16:44.287Z,1004.5
2017-01-11T04:17:55.688Z,1004.54
2017-01-11T04:19:07.141Z,1004.51
2017-01-11T04:20:18.569Z,1004.47
2017-01-11T04:21:29.964Z,1004.46
2017-01-11T04:22:41.365Z,1004.38
2017-01-11T04:23:52.772Z,1004.47
2017-01-11T04:25:04.235Z,1004.38
2017-01-11T04:26:15.646Z,1004.36
2017-01-11T04:27:27.045Z,1004.33
2017-01-11T04:28:38.445Z,1004.37
2017-01-11T04:29:49.844Z,1004.38
2017-01-11T04:31:01.302Z,1004.41
2017-01-11T04:32:12.934Z,1004.38
2017-01-11T04:33:24.529Z,1004.44
2017-01-11T04:34:35.933Z,1004.41
2017-01-11T04:35:47.367Z,1004.38
2017-01-11T04:36:58.820Z,1004.33
2017-01-11T04:38:10.223Z,1004.27
2017-01-11T04:39:21.837Z,1004.33
2017-01-11T04:40:33.247Z,1004.36
2017-01-11T04:41:44.677Z,1004.35
2017-01-11T04:42:56.130Z,1004.31
2017-01-11T04:44:07.531Z,1004.29
2017-01-11T04:45:19.129Z,1004.3
2017-01-11T04:46:30.937Z,1004.31
2017-01-11T04:47:42.333Z,1004.26
2017-01-11T04:48:53.785Z,1004.2
2017-01-11T04:50:05.192Z,1004.18
2017-01-11T04:51:16.591Z,1004.18
2017-01-11T04:52:27.993Z,1004.17
2017-01-11T04:53:39.601Z,1004.2
2017-01-11T04:54:51.049Z,1004.21
2017-01-11T04:56:02.451Z,1004.16
2017-01-11T04:57:13.852Z,1004.11
2017-01-11T04:58:25.655Z,1004.07
2017-01-11T04:59:37.060Z,1004.07
2017-01-11T05:00:48.473Z,1004.06
2017-01-11T05:01:59.870Z,1004.02
2017-01-11T05:03:11.278Z,1004
2017-01-11T05:04:22.719Z,1004.03
2017-01-11T05:05:34.369Z,1003.97
2017-01-11T05:06:45.774Z,1003.97
2017-01-11T05:07:57.182Z,1003.92
2017-01-11T05:09:08.584Z,1003.93
2017-01-11T05:10:20.383Z,1003.95
2017-01-11T05:11:31.827Z,1003.95
2017-01-11T05:12:43.426Z,1003.84
2017-01-11T05:13:54.829Z,1003.78
2017-01-11T05:15:06.432Z,1003.71
2017-01-11T05:16:18.032Z,1003.68
2017-01-11T05:17:29.487Z,1003.66
2017-01-11T05:18:41.100Z,1003.63
2017-01-11T05:19:52.504Z,1003.58
2017-01-11T05:21:03.910Z,1003.49
2017-01-11T05:22:15.308Z,1003.41
2017-01-11T05:23:26.762Z,1003.32
2017-01-11T05:24:38.170Z,1003.25
2017-01-11T05:25:49.569Z,1003.2
2017-01-11T05:27:00.970Z,1003.13
2017-01-11T05:28:12.369Z,1003.06
2017-01-11T05:29:24.023Z,1003.05
2017-01-11T05:30:35.421Z,1003
2017-01-11T05:31:46.826Z,1002.99
2017-01-11T05:32:58.228Z,1002.98
2017-01-11T05:34:09.633Z,1002.93
2017-01-11T05:35:21.084Z,1002.97
2017-01-11T05:36:32.495Z,1002.89
2017-01-11T05:37:43.899Z,1002.79
2017-01-11T05:38:55.296Z,1002.78
2017-01-11T05:40:06.708Z,1002.75
2017-01-11T05:41:18.156Z,1002.61
2017-01-11T05:42:29.556Z,1002.65
2017-01-11T05:43:40.953Z,1002.64
2017-01-11T05:44:52.346Z,1002.69
2017-01-11T05:46:03.749Z,1002.61
2017-01-11T05:47:15.405Z,1002.63
2017-01-11T05:48:26.797Z,1002.57
2017-01-11T05:49:38.195Z,1002.58
2017-01-11T05:50:49.598Z,1002.56
2017-01-11T05:52:01.005Z,1002.59
2017-01-11T05:53:12.448Z,1002.55
2017-01-11T05:54:23.867Z,1002.5
2017-01-11T05:55:35.468Z,1002.48
2017-01-11T05:56:46.873Z,1002.47
2017-01-11T05:57:58.280Z,1002.44
2017-01-11T05:59:09.726Z,1002.54
2017-01-11T06:00:21.329Z,1002.47
2017-01-11T06:01:33.128Z,1002.46
2017-01-11T06:02:44.538Z,1002.41
2017-01-11T06:03:56.144Z,1002.4
2017-01-11T06:05:07.597Z,1002.31
2017-01-11T06:06:18.995Z,1002.36
2017-01-11T06:07:30.400Z,1002.38
2017-01-11T06:08:41.812Z,1002.42
2017-01-11T06:09:53.220Z,1002.47
2017-01-11T06:11:04.672Z,1002.53
2017-01-11T06:12:16.083Z,1002.56
2017-01-11T06:13:27.486Z,1002.63
2017-01-11T06:14:38.890Z,1002.65
2017-01-11T06:15:50.490Z,1002.65
2017-01-11T06:17:01.943Z,1002.62
2017-01-11T06:18:13.339Z,1002.55
2017-01-11T06:19:24.941Z,1002.61
2017-01-11T06:20:36.337Z,1002.58
2017-01-11T06:21:47.740Z,1002.53
2017-01-11T06:22:59.193Z,1002.62
2017-01-11T06:24:10.593Z,1002.63
2017-01-11T06:25:21.996Z,1002.71
2017-01-11T06:26:33.612Z,1002.69
2017-01-11T06:27:45.014Z,1002.65
2017-01-11T06:28:56.472Z,1002.68
2017-01-11T06:30:07.907Z,1002.69
2017-01-11T06:31:19.501Z,1002.62
2017-01-11T06:32:30.905Z,1002.63
2017-01-11T06:33:42.306Z,1002.67
2017-01-11T06:34:53.753Z,1002.69
2017-01-11T06:36:05.159Z,1002.71
2017-01-11T06:37:16.555Z,1002.64
2017-01-11T06:38:27.954Z,1002.66
2017-01-11T06:39:39.350Z,1002.67
2017-01-11T06:40:50.748Z,1002.71
2017-01-11T06:42:02.151Z,1002.69
2017-01-11T06:43:13.556Z,1002.73
2017-01-11T06:44:24.970Z,1002.71
2017-01-11T06:45:36.428Z,1002.63
2017-01-11T06:46:47.822Z,1002.69
2017-01-11T06:47:59.241Z,1002.68
2017-01-11T06:49:10.639Z,1002.66
2017-01-11T06:50:22.036Z,1002.63
2017-01-11T06:51:33.689Z,1002.7
2017-01-11T06:52:45.115Z,1002.67
2017-01-11T06:53:56.516Z,1002.57
2017-01-11T06:55:08.118Z,1002.59
2017-01-11T06:56:19.520Z,1002.51
2017-01-11T06:57:30.982Z,1002.5
2017-01-11T06:58:42.383Z,1002.48
2017-01-11T06:59:54.187Z,1002.48
2017-01-11T07:01:05.584Z,1002.4
2017-01-11T07:02:16.993Z,1002.37
2017-01-11T07:03:28.446Z,1002.28
2017-01-11T07:04:40.048Z,1002.24
2017-01-11T07:05:51.445Z,1002.21
2017-01-11T07:07:02.847Z,1002.22
2017-01-11T07:08:14.247Z,1002.22
2017-01-11T07:09:25.905Z,1002.24
2017-01-11T07:10:37.302Z,1002.18
2017-01-11T07:11:48.898Z,1002.18
2017-01-11T07:13:00.299Z,1002.21
2017-01-11T07:14:11.733Z,1002.16
2017-01-11T07:15:23.181Z,1002.04
2017-01-11T07:16:34.582Z,1002.04
2017-01-11T07:17:45.982Z,1001.97
2017-01-11T07:18:57.386Z,1001.96
2017-01-11T07:20:08.789Z,1001.9
2017-01-11T07:21:20.233Z,1001.83
2017-01-11T07:22:31.631Z,1001.79
2017-01-11T07:23:43.240Z,1001.73
2017-01-11T07:24:54.636Z,1001.81
2017-01-11T07:26:06.033Z,1001.75
2017-01-11T07:27:17.681Z,1001.76
2017-01-11T07:28:29.074Z,1001.77
2017-01-11T07:29:40.475Z,1001.74
2017-01-11T07:30:51.875Z,1001.67
2017-01-11T07:32:03.272Z,1001.64
2017-01-11T07:33:14.943Z,1001.66
2017-01-11T07:34:26.346Z,1001.68
2017-01-11T07:35:37.746Z,1001.64
2017-01-11T07:36:49.151Z,1001.68
2017-01-11T07:38:00.552Z,1001.73
2017-01-11T07:39:12.003Z,1001.69
2017-01-11T07:40:23.405Z,1001.7
2017-01-11T07:41:34.804Z,1001.66
2017-01-11T07:42:46.237Z,1001.63
2017-01-11T07:43:57.643Z,1001.59
2017-01-11T07:45:09.095Z,1001.52
2017-01-11T07:46:20.699Z,1001.46
2017-01-11T07:47:32.099Z,1001.34
2017-01-11T07:48:43.500Z,1001.33
2017-01-11T07:49:54.899Z,1001.33
2017-01-11T07:51:06.349Z,1001.28
2017-01-11T07:52:17.957Z,1001.19
2017-01-11T07:53:29.358Z,1001.18
2017-01-11T07:54:40.763Z,1001.2
2017-01-11T07:55:52.368Z,1001.19
2017-01-11T07:57:03.818Z,1001.19
2017-01-11T07:58:15.222Z,1001.08
2017-01-11T07:59:26.620Z,1000.99
2017-01-11T08:00:38.023Z,1000.96
2017-01-11T08:01:49.425Z,1000.96
2017-01-11T08:03:00.877Z,1000.99
2017-01-11T08:04:12.272Z,1001.04
2017-01-11T08:05:23.675Z,1001
2017-01-11T08:06:35.073Z,1001.05
2017-01-11T08:07:46.474Z,1000.99
2017-01-11T08:08:57.913Z,1001.06
2017-01-11T08:10:09.304Z,1000.99
2017-01-11T08:11:20.904Z,1000.86
2017-01-11T08:12:32.303Z,1000.8
2017-01-11T08:13:43.716Z,1000.64
2017-01-11T08:14:55.173Z,1000.58
2017-01-11T08:16:06.584Z,1000.51
2017-01-11T08:17:17.985Z,1000.52
2017-01-11T08:18:29.584Z,1000.57
2017-01-11T08:19:40.989Z,1000.6
2017-01-11T08:20:52.418Z,1000.56
2017-01-11T08:22:03.855Z,1000.43
2017-01-11T08:23:15.847Z,1000.37
2017-01-11T08:24:27.243Z,1000.21
2017-01-11T08:25:38.886Z,1000.1
2017-01-11T08:26:50.287Z,1000.1
2017-01-11T08:28:01.681Z,1000.13
2017-01-11T08:29:13.074Z,1000.06
2017-01-11T08:30:24.684Z,999.96
2017-01-11T08:31:36.149Z,999.95
2017-01-11T08:32:47.556Z,999.85
2017-01-11T08:33:58.968Z,999.8
2017-01-11T08:35:10.375Z,999.81
2017-01-11T08:36:21.788Z,999.75
2017-01-11T08:37:33.232Z,999.78
2017-01-11T08:38:44.632Z,999.77
2017-01-11T08:39:56.031Z,999.68
2017-01-11T08:41:07.434Z,999.8
2017-01-11T08:42:18.843Z,999.79
2017-01-11T08:43:30.295Z,999.71
2017-01-11T08:44:41.895Z,999.7
2017-01-11T08:45:53.297Z,999.67
2017-01-11T08:47:04.699Z,999.76
2017-01-11T08:48:16.102Z,999.69
2017-01-11T08:49:27.790Z,999.64
2017-01-11T08:50:39.401Z,999.59
2017-01-11T08:51:51.011Z,999.53
2017-01-11T08:53:02.623Z,999.63
2017-01-11T08:54:14.013Z,999.56
2017-01-11T08:55:25.654Z,999.45
2017-01-11T08:56:37.056Z,999.35
2017-01-11T08:57:48.653Z,999.36
2017-01-11T08:59:00.056Z,999.29
2017-01-11T09:00:11.465Z,999.23
2017-01-11T09:01:22.926Z,999.28
2017-01-11T09:02:34.542Z,999.22
2017-01-11T09:03:45.941Z,999.26
2017-01-11T09:04:57.546Z,999.16
2017-01-11T09:06:09.147Z,999.15
2017-01-11T09:07:20.599Z,999.07
2017-01-11T09:08:31.998Z,999.04
2017-01-11T09:09:43.398Z,999.11
2017-01-11T09:10:54.795Z,999.07
2017-01-11T09:12:06.202Z,999.1
2017-01-11T09:13:17.855Z,998.96
2017-01-11T09:14:29.252Z,999
2017-01-11T09:15:40.649Z,998.91
2017-01-11T09:16:52.056Z,998.88
2017-01-11T09:18:03.456Z,998.82
2017-01-11T09:19:14.917Z,998.8
2017-01-11T09:20:26.314Z,998.71
2017-01-11T09:21:37.718Z,998.77
2017-01-11T09:22:49.124Z,998.58
2017-01-11T09:24:00.531Z,998.67
2017-01-11T09:25:11.993Z,998.59
2017-01-11T09:26:23.397Z,998.64
2017-01-11T09:27:34.796Z,998.62
2017-01-11T09:28:46.202Z,998.55
2017-01-11T09:29:57.597Z,998.56
2017-01-11T09:31:09.042Z,998.48
2017-01-11T09:32:20.448Z,998.37
2017-01-11T09:33:31.855Z,998.4
2017-01-11T09:34:43.457Z,998.4
2017-01-11T09:35:54.863Z,998.32
2017-01-11T09:37:06.314Z,998.44
2017-01-11T09:38:17.710Z,998.33
2017-01-11T09:39:29.116Z,998.32
2017-01-11T09:40:40.546Z,998.34
2017-01-11T09:41:51.952Z,998.3
2017-01-11T09:43:03.394Z,998.29
2017-01-11T09:44:14.793Z,998.16
2017-01-11T09:45:26.194Z,998.11
2017-01-11T09:46:37.599Z,998.03
2017-01-11T09:47:48.994Z,998.01
2017-01-11T09:49:00.452Z,997.92
2017-01-11T09:50:11.845Z,997.9
2017-01-11T09:51:23.247Z,997.81
2017-01-11T09:52:34.846Z,997.8
2017-01-11T09:53:46.249Z,997.7
2017-01-11T09:54:57.695Z,997.66
2017-01-11T09:56:09.088Z,997.7
2017-01-11T09:57:20.693Z,997.62
2017-01-11T09:58:32.289Z,997.57
2017-01-11T09:59:43.706Z,997.53
2017-01-11T10:00:55.107Z,997.54
2017-01-11T10:02:06.506Z,997.42
2017-01-11T10:03:17.932Z,997.54
2017-01-11T10:04:29.534Z,997.48
2017-01-11T10:05:40.985Z,997.29
2017-01-11T10:06:52.617Z,997.4
2017-01-11T10:08:04.209Z,997.28
2017-01-11T10:09:15.607Z,997.26
2017-01-11T10:10:27.013Z,997.18
2017-01-11T10:11:38.467Z,997.28
2017-01-11T10:12:50.074Z,997.37
2017-01-11T10:14:01.480Z,997.33
2017-01-11T10:15:13.099Z,997.41
2017-01-11T10:16:24.693Z,997.37
2017-01-11T10:17:36.145Z,997.41
2017-01-11T10:18:47.542Z,997.37
2017-01-11T10:19:58.943Z,997.37
2017-01-11T10:21:10.340Z,997.3
2017-01-11T10:22:21.737Z,997.29
2017-01-11T10:23:33.182Z,997.32
2017-01-11T10:24:44.786Z,997.26
2017-01-11T10:25:56.182Z,997.33
2017-01-11T10:27:07.578Z,997.31
2017-01-11T10:28:18.983Z,997.25
2017-01-11T10:29:30.638Z,997.18
2017-01-11T10:30:42.040Z,997.22
2017-01-11T10:31:53.630Z,997.19
2017-01-11T10:33:05.027Z,997.21
2017-01-11T10:34:16.417Z,997.13
2017-01-11T10:35:27.869Z,997.18
2017-01-11T10:36:39.275Z,997.1
2017-01-11T10:37:51.081Z,997.13
2017-01-11T10:39:02.480Z,997.08
2017-01-11T10:40:14.087Z,996.93
2017-01-11T10:41:25.541Z,996.89
2017-01-11T10:42:36.937Z,996.85
2017-01-11T10:43:48.336Z,996.86
2017-01-11T10:44:59.741Z,996.73
2017-01-11T10:46:11.144Z,996.74
2017-01-11T10:47:22.594Z,996.66
2017-01-11T10:48:33.993Z,996.72
2017-01-11T10:49:45.391Z,996.59
2017-01-11T10:50:56.795Z,996.54
2017-01-11T10:52:08.195Z,996.62
2017-01-11T10:53:19.649Z,996.63
2017-01-11T10:54:31.255Z,996.6
2017-01-11T10:55:42.646Z,996.59
2017-01-11T10:56:54.052Z,996.64
2017-01-11T10:58:05.653Z,996.46
2017-01-11T10:59:17.337Z,996.47
2017-01-11T11:00:28.739Z,996.37
2017-01-11T11:01:40.140Z,996.35
2017-01-11T11:02:51.544Z,996.41
2017-01-11T11:04:02.943Z,996.34
2017-01-11T11:05:14.346Z,996.36
2017-01-11T11:06:25.750Z,996.39
2017-01-11T11:07:37.147Z,996.48
2017-01-11T11:08:48.751Z,996.58
2017-01-11T11:10:00.155Z,996.32
2017-01-11T11:11:11.560Z,996.32
2017-01-11T11:12:22.955Z,996.18
2017-01-11T11:13:34.358Z,996.19
2017-01-11T11:14:45.758Z,996.27
2017-01-11T11:15:57.411Z,996.19
2017-01-11T11:17:09.019Z,996.08
2017-01-11T11:18:20.422Z,996.15
2017-01-11T11:19:32.021Z,996.07
2017-01-11T11:20:43.445Z,996.03
2017-01-11T11:21:54.900Z,996.09
2017-01-11T11:23:06.297Z,996.01
2017-01-11T11:24:17.700Z,995.93
2017-01-11T11:25:29.102Z,995.97
2017-01-11T11:26:40.507Z,995.93
2017-01-11T11:27:52.161Z,995.85
2017-01-11T11:29:03.763Z,995.83
2017-01-11T11:30:15.161Z,995.92
2017-01-11T11:31:26.563Z,995.85
2017-01-11T11:32:37.963Z,995.87
2017-01-11T11:33:49.415Z,995.69
2017-01-11T11:35:00.813Z,995.68
2017-01-11T11:36:12.222Z,995.72
2017-01-11T11:37:23.623Z,995.69
2017-01-11T11:38:35.023Z,995.77
2017-01-11T11:39:46.671Z,995.76
2017-01-11T11:40:58.067Z,995.8
2017-01-11T11:42:09.475Z,995.8
2017-01-11T11:43:21.071Z,995.83
2017-01-11T11:44:32.471Z,995.89
2017-01-11T11:45:44.130Z,995.97
2017-01-11T11:46:55.723Z,995.91
2017-01-11T11:48:07.324Z,995.82
2017-01-11T11:49:18.926Z,995.73
2017-01-11T11:50:30.321Z,995.69
2017-01-11T11:51:41.777Z,995.75
2017-01-11T11:52:53.168Z,995.65
2017-01-11T11:54:04.577Z,995.64
2017-01-11T11:55:15.971Z,995.68
2017-01-11T11:56:27.585Z,995.72
2017-01-11T11:57:39.035Z,995.62
2017-01-11T11:58:50.433Z,995.6
2017-01-11T12:00:01.869Z,995.69
2017-01-11T12:01:13.277Z,995.6
2017-01-11T12:02:24.879Z,995.57
2017-01-11T12:03:36.324Z,995.71
2017-01-11T12:04:47.931Z,995.73
2017-01-11T12:05:59.330Z,995.71
2017-01-11T12:07:10.722Z,995.72
2017-01-11T12:08:22.123Z,995.84
2017-01-11T12:09:33.572Z,995.81
2017-01-11T12:10:44.976Z,995.71
2017-01-11T12:11:56.384Z,995.82
2017-01-11T12:13:07.991Z,995.72
2017-01-11T12:14:19.420Z,995.77
2017-01-11T12:15:30.878Z,995.65
2017-01-11T12:16:42.283Z,995.7
2017-01-11T12:17:53.676Z,995.64
2017-01-11T12:19:05.086Z,995.63
2017-01-11T12:20:16.491Z,995.62
2017-01-11T12:21:27.941Z,995.62
2017-01-11T12:22:39.343Z,995.67
2017-01-11T12:23:50.740Z,995.69
2017-01-11T12:25:02.144Z,995.59
2017-01-11T12:26:13.545Z,995.61
2017-01-11T12:27:25.195Z,995.66
2017-01-11T12:28:36.596Z,995.69
2017-01-11T12:29:48.021Z,995.74
2017-01-11T12:30:59.415Z,995.71
2017-01-11T12:32:11.020Z,995.69
2017-01-11T12:33:22.475Z,995.78
2017-01-11T12:34:33.871Z,995.8
2017-01-11T12:35:45.266Z,995.86
2017-01-11T12:36:56.669Z,995.76
2017-01-11T12:38:08.076Z,995.8
2017-01-11T12:39:19.722Z,995.81
2017-01-11T12:40:31.121Z,995.74
2017-01-11T12:41:42.734Z,995.75
2017-01-11T12:42:54.134Z,995.78
2017-01-11T12:44:05.738Z,995.83
2017-01-11T12:45:17.192Z,995.78
2017-01-11T12:46:28.602Z,995.83
2017-01-11T12:47:40.007Z,995.88
2017-01-11T12:48:51.610Z,995.85
2017-01-11T12:50:03.011Z,995.84
2017-01-11T12:51:14.460Z,995.81
2017-01-11T12:52:25.879Z,995.8
2017-01-11T12:53:37.277Z,995.86
2017-01-11T12:54:48.689Z,995.85
2017-01-11T12:56:00.298Z,995.85
2017-01-11T12:57:11.748Z,995.97
2017-01-11T12:58:23.146Z,995.93
2017-01-11T12:59:34.552Z,995.94
2017-01-11T13:00:46.152Z,995.91
2017-01-11T13:01:57.757Z,995.94
2017-01-11T13:03:09.211Z,995.83
2017-01-11T13:04:20.624Z,995.79
2017-01-11T13:05:32.022Z,995.73
2017-01-11T13:06:43.626Z,995.73
2017-01-11T13:07:55.034Z,995.75
2017-01-11T13:09:06.491Z,995.77
2017-01-11T13:10:17.891Z,995.67
2017-01-11T13:11:29.499Z,995.74
2017-01-11T13:12:40.904Z,995.81
2017-01-11T13:13:52.320Z,995.82
2017-01-11T13:15:03.768Z,995.74
2017-01-11T13:16:15.171Z,995.58
2017-01-11T13:17:26.573Z,995.68
2017-01-11T13:18:37.975Z,995.71
2017-01-11T13:19:49.376Z,995.68
2017-01-11T13:21:00.785Z,995.7
2017-01-11T13:22:12.196Z,995.68
2017-01-11T13:23:23.802Z,995.66
2017-01-11T13:24:35.244Z,995.69
2017-01-11T13:25:46.699Z,995.62
2017-01-11T13:26:58.133Z,995.66
2017-01-11T13:28:09.531Z,995.65
2017-01-11T13:29:20.932Z,995.63
2017-01-11T13:30:32.327Z,995.67
2017-01-11T13:31:43.797Z,995.69
2017-01-11T13:32:55.224Z,995.62
2017-01-11T13:34:06.626Z,995.61
2017-01-11T13:35:18.237Z,995.61
2017-01-11T13:36:29.646Z,995.56
2017-01-11T13:37:41.104Z,995.62
2017-01-11T13:38:52.509Z,995.6
2017-01-11T13:40:03.910Z,995.57
2017-01-11T13:41:15.303Z,995.56
2017-01-11T13:42:26.715Z,995.55
2017-01-11T13:43:38.172Z,995.51
2017-01-11T13:44:49.579Z,995.59
2017-01-11T13:46:00.986Z,995.56
2017-01-11T13:47:12.400Z,995.52
2017-01-11T13:48:23.803Z,995.47
2017-01-11T13:49:35.456Z,995.52
2017-01-11T13:50:46.894Z,995.49
2017-01-11T13:51:58.302Z,995.51
2017-01-11T13:53:09.708Z,995.58
2017-01-11T13:54:21.116Z,995.48
2017-01-11T13:55:32.563Z,995.58
2017-01-11T13:56:43.974Z,995.61
2017-01-11T13:57:55.379Z,995.65
2017-01-11T13:59:06.813Z,995.69
2017-01-11T14:00:18.223Z,995.72
2017-01-11T14:01:29.692Z,995.7
2017-01-11T14:02:41.298Z,995.75
2017-01-11T14:03:52.693Z,995.79
2017-01-11T14:05:04.104Z,995.82
2017-01-11T14:06:15.705Z,995.83
2017-01-11T14:07:27.162Z,995.91
2017-01-11T14:08:38.772Z,995.9
2017-01-11T14:09:50.389Z,995.86
2017-01-11T14:11:01.992Z,995.83
2017-01-11T14:12:13.400Z,995.86
2017-01-11T14:13:24.860Z,995.91
2017-01-11T14:14:36.264Z,995.91
2017-01-11T14:15:47.671Z,995.92
2017-01-11T14:16:59.090Z,996.04
2017-01-11T14:18:10.909Z,995.98
2017-01-11T14:19:22.360Z,996.02
2017-01-11T14:20:33.767Z,996.03
2017-01-11T14:21:45.371Z,996.02
2017-01-11T14:22:56.782Z,996.02
2017-01-11T14:24:08.194Z,996.03
2017-01-11T14:25:19.853Z,996.04
2017-01-11T14:26:31.261Z,996.08
2017-01-11T14:27:42.656Z,996.11
2017-01-11T14:28:54.064Z,996.2
2017-01-11T14:30:05.670Z,996.22
2017-01-11T14:31:17.112Z,996.2
2017-01-11T14:32:28.724Z,996.33
2017-01-11T14:33:40.134Z,996.3
2017-01-11T14:34:51.544Z,996.31
2017-01-11T14:36:02.945Z,996.37
2017-01-11T14:37:14.398Z,996.36
2017-01-11T14:38:26.008Z,996.32